Terminal Aerodrome Forecast
Issued by NWS

Home | Current Version | Previous Version | Text Only | Print | Product List | Glossary On
Versions: 1 2 3 4 5 6 7 8 9 10 11 12 13 14 15 16 17 18 19 20
000
FTUS43 KSGF 182300
TAFJLN
TAF
KJLN 182330Z 1900/1924 20010KT P6SM SKC WS013/24040KT
     FM190400 21015G20KT P6SM BKN150 WS013/24050KT
     FM191300 26010G15KT P6SM FEW150
     FM191800 29010KT P6SM FEW025=

USA.gov is the U.S. government's official web portal to all federal, state and local government web resources and services.